Aérodrome :







RETROUVEZ-NOUS SUR...

 
LOGIN :

S'inscrire | Disclaimer

   EN    FR    IT 

 









Légende :    VFR   VFR Marginal   IFR   IFR Intensif   IFR Très Intensif
Visi : 
Plafond : 
>= 8 km
>= 3000ft
5 à 8 km
1000 à 3000 ft
1500m à 5 km
500 à 1000 ft
800 à 1500m
200 à 500 ft
< 800m
< 200 ft
Symboles :   Orages  Brouillard  Fortes neiges  Fortes précipitations  Vent > 20 kt






- Altitude de l'aérodrome : 232 ft
- Code IATA : YQM


CYQM - Greater Moncton International

DERNIER METAR :
  • 181900Z 29005KT 240V310 15SM FEW025 SCT210 BKN240 M14/M20 A3028 RMK CU1CC3CI3 CU TR SLP261

METARs EXPIRÉS :
  • 181800Z 28008KT 15SM FEW020 FEW035 FEW240 M14/M21 A3026 RMK CU1SC1CI1 CU TR SC TR CI TR SLP257
  • 181700Z 29008KT 15SM FEW020 FEW030 FEW120 FEW240 M15/M22 A3029 RMK CU1SC1AC1CI1 CU TR SC TR AC TR CI TR SLP265

TAF TAF CYQM
Valide du 18 à 18h jusqu'au 19 à 18h UTC


181738Z 1818/1918 28010KT P6SM FEW020
BECMG 1820/1822 VRB03KT
FM190300 15006KT P6SM BKN150
FM190500 08008KT P6SM -SN SCT008 OVC100
FM190900 09010G20KT 2SM -SN BLSN OVC008
FM191400 05012G22KT 1SM -SN BLSN VV008
PROB40 1914/1918 1/2SM SN VV004 RMK NXT FCST BY 190000Z



MET'MAP, la Météo Aéronautique d'un coup d'oeil ! - Copyright ORBIFLY Décembre 2007 - Disclaimer

ORBIFLY MET'MAP TEAM :

Programmation & Développement : Alexandra Zaïnal
Sur une idée originale de : Baudouin d'Aumeries
Assistance à la programmation : Marc-Olivier Méhu
Soutien technique & logistique : Manuel Goepfert

Contact : metmap@orbifly.com




SOURCES & CREDITS :

   NOAA